Time;durP1;ratioP1;P1;durP2;ratioP2;P2;SDS_P1;SDS_P2;PMS_P1;PMS_P2;Temp;Humidity;BMP_temperature;BMP_pressure;BME280_temperature;BME280_humidity;BME280_pressure;Samples;Min_cycle;Max_cycle;Signal;HPM_P1;HPM_P2
2023/02/06 00:01:25;;;;;;;14.20;9.90;;;;;;;-1.62;100.00;101207.95;105818;1258;60470;-76
2023/02/06 00:03:53;;;;;;;16.10;10.30;;;;;;;-1.61;100.00;101208.78;105895;1253;60565;-76
2023/02/06 00:06:29;;;;;;;20.20;13.30;;;;;;;-1.64;100.00;101209.00;105867;1259;72898;-75
2023/02/06 00:08:58;;;;;;;13.80;12.00;;;;;;;-1.66;100.00;101205.37;105906;1256;67068;-75
2023/02/06 00:11:26;;;;;;;14.30;11.40;;;;;;;-1.67;100.00;101200.98;105880;1256;72556;-75
2023/02/06 00:13:54;;;;;;;11.20;9.70;;;;;;;-1.65;100.00;101196.45;105873;1259;61099;-76
2023/02/06 00:16:42;;;;;;;10.40;8.70;;;;;;;-1.62;100.00;101196.89;105852;1254;61768;-74
2023/02/06 00:19:10;;;;;;;11.10;9.60;;;;;;;-1.59;100.00;101199.30;105969;1258;75019;-77
2023/02/06 00:21:39;;;;;;;12.00;8.40;;;;;;;-1.57;100.00;101202.11;106058;1257;67353;-75
2023/02/06 00:24:08;;;;;;;12.60;9.10;;;;;;;-1.58;100.00;101201.98;105730;1258;72801;-77
2023/02/06 00:26:37;;;;;;;10.30;8.30;;;;;;;-1.59;100.00;101200.10;105937;1255;62234;-75
2023/02/06 00:29:06;;;;;;;12.20;9.10;;;;;;;-1.60;100.00;101205.52;105865;1253;61545;-76
2023/02/06 00:31:34;;;;;;;10.70;7.70;;;;;;;-1.59;100.00;101206.30;105865;1253;74174;-73
2023/02/06 00:34:02;;;;;;;11.40;10.00;;;;;;;-1.58;100.00;101206.90;105930;1257;66354;-74
2023/02/06 00:36:32;;;;;;;10.10;7.40;;;;;;;-1.60;100.00;101209.60;105989;1259;73888;-75
2023/02/06 00:39:00;;;;;;;12.20;8.30;;;;;;;-1.61;100.00;101209.17;105780;1253;60522;-76
2023/02/06 00:41:29;;;;;;;9.40;8.00;;;;;;;-1.63;100.00;101205.43;105883;1253;61197;-77
2023/02/06 00:43:57;;;;;;;11.50;10.20;;;;;;;-1.69;100.00;101202.62;105945;1258;75034;-75
2023/02/06 00:46:26;;;;;;;11.10;8.70;;;;;;;-1.70;100.00;101201.48;105856;1258;68175;-73
2023/02/06 00:48:54;;;;;;;8.80;7.90;;;;;;;-1.66;100.00;101203.42;105796;1253;70413;-75
2023/02/06 00:51:23;;;;;;;10.60;8.40;;;;;;;-1.61;100.00;101202.77;105969;1258;60454;-75
2023/02/06 00:53:51;;;;;;;10.10;7.90;;;;;;;-1.60;100.00;101198.61;105693;1255;60585;-78
2023/02/06 00:56:19;;;;;;;9.80;8.10;;;;;;;-1.59;100.00;101201.71;105718;1257;75108;-75
2023/02/06 00:58:47;;;;;;;10.80;9.20;;;;;;;-1.59;100.00;101197.83;105835;1256;68909;-74
2023/02/06 01:01:16;;;;;;;12.90;8.10;;;;;;;-1.58;100.00;101199.38;105994;1257;71980;-75
2023/02/06 01:03:45;;;;;;;10.60;9.40;;;;;;;-1.58;100.00;101201.83;105899;1254;61653;-74
2023/02/06 01:06:13;;;;;;;9.60;8.30;;;;;;;-1.59;100.00;101201.94;105860;1255;60480;-74
2023/02/06 01:08:42;;;;;;;10.10;8.60;;;;;;;-1.60;100.00;101203.94;105690;1257;72638;-76
2023/02/06 01:11:12;;;;;;;9.60;7.40;;;;;;;-1.60;100.00;101200.08;105944;1254;65852;-76
2023/02/06 01:13:41;;;;;;;8.50;7.70;;;;;;;-1.58;100.00;101202.21;105978;1258;72843;-78
2023/02/06 01:16:10;;;;;;;10.20;8.90;;;;;;;-1.58;100.00;101201.16;105925;1253;60505;-75
2023/02/06 01:18:38;;;;;;;11.10;8.90;;;;;;;-1.61;100.00;101205.39;105821;1268;60454;-76
2023/02/06 01:21:19;;;;;;;11.30;8.30;;;;;;;-1.62;100.00;101200.02;105788;1258;72806;-76
2023/02/06 01:23:49;;;;;;;9.80;8.30;;;;;;;-1.64;100.00;101201.81;105852;1257;67090;-75
2023/02/06 01:26:19;;;;;;;10.60;8.40;;;;;;;-1.62;100.00;101200.98;105953;1259;71975;-77
2023/02/06 01:28:48;;;;;;;10.50;7.80;;;;;;;-1.58;100.00;101198.48;105848;1259;60713;-76
2023/02/06 01:31:26;;;;;;;11.40;8.60;;;;;;;-1.55;100.00;101200.54;105957;1253;60448;-77
2023/02/06 01:33:56;;;;;;;11.10;9.30;;;;;;;-1.53;100.00;101199.94;105807;1259;74071;-77
2023/02/06 01:36:25;;;;;;;10.20;8.70;;;;;;;-1.53;100.00;101197.80;106000;1256;68551;-76
2023/02/06 01:38:56;;;;;;;9.00;7.70;;;;;;;-1.52;100.00;101200.04;105924;1259;70817;-78
2023/02/06 01:41:24;;;;;;;10.20;7.60;;;;;;;-1.52;100.00;101197.04;105862;1257;60394;-76
2023/02/06 01:44:20;;;;;;;9.90;8.60;;;;;;;-1.50;100.00;101200.08;105994;1254;61249;-75
2023/02/06 01:46:53;;;;;;;9.20;7.50;;;;;;;-1.47;100.00;101198.69;105814;1259;72667;-74
2023/02/06 01:49:23;;;;;;;;;;;;;;;-1.43;100.00;101196.40;105926;1253;68574;-75
2023/02/06 01:51:54;;;;;;;7.50;6.70;;;;;;;-1.41;100.00;101198.56;105891;1257;72315;-77
2023/02/06 01:54:22;;;;;;;9.90;8.40;;;;;;;-1.47;100.00;101204.00;105797;1255;60520;-75
2023/02/06 01:56:53;;;;;;;11.20;9.20;;;;;;;-1.52;100.00;101205.64;105907;1258;60788;-78
2023/02/06 01:59:21;;;;;;;11.10;10.00;;;;;;;-1.53;100.00;101206.60;105908;1254;73273;-81
2023/02/06 02:01:49;;;;;;;9.50;8.20;;;;;;;-1.51;100.00;101208.61;105829;1256;67060;-76
2023/02/06 02:04:19;;;;;;;9.40;7.10;;;;;;;-1.50;100.00;101211.66;105812;1256;71101;-75
2023/02/06 02:06:52;;;;;;;12.80;9.80;;;;;;;-1.49;100.00;101209.98;105875;1255;60788;-76
2023/02/06 02:09:20;;;;;;;10.00;8.90;;;;;;;-1.49;100.00;101214.60;105733;1262;60580;-76
2023/02/06 02:11:48;;;;;;;9.90;8.10;;;;;;;-1.53;100.00;101218.81;105557;1263;74961;-75
2023/02/06 02:14:24;;;;;;;9.20;8.00;;;;;;;-1.54;100.00;101225.78;105650;1259;69128;-75
2023/02/06 02:17:31;;;;;;;8.60;7.70;;;;;;;-1.58;99.97;101226.43;105813;1260;72965;-75
2023/02/06 02:20:37;;;;;;;10.40;7.40;;;;;;;-1.66;99.42;101233.09;105884;1258;61454;-76
2023/02/06 02:23:27;;;;;;;9.10;7.90;;;;;;;-1.77;99.21;101234.27;105893;1254;61296;-75
2023/02/06 02:26:32;;;;;;;9.80;8.00;;;;;;;-1.82;99.10;101235.42;105859;1254;73192;-75
2023/02/06 02:29:21;;;;;;;10.00;8.50;;;;;;;-1.92;98.87;101241.75;105877;1259;68490;-77
2023/02/06 02:31:56;;;;;;;10.30;8.40;;;;;;;-1.97;98.99;101243.23;105905;1258;71584;-75
2023/02/06 02:34:52;;;;;;;10.10;8.20;;;;;;;-2.01;98.97;101239.38;105996;1258;60586;-78
2023/02/06 02:37:26;;;;;;;10.40;7.80;;;;;;;-2.08;99.03;101240.81;106036;1254;60565;-75
2023/02/06 02:39:59;;;;;;;10.00;8.30;;;;;;;-2.10;99.05;101238.17;105874;1256;72112;-79
2023/02/06 02:42:35;;;;;;;9.80;7.60;;;;;;;-2.10;98.78;101242.23;105786;1258;66291;-78
2023/02/06 02:45:12;;;;;;;9.80;7.30;;;;;;;-2.08;99.02;101244.52;105936;1259;71335;-77
2023/02/06 02:48:00;;;;;;;13.60;8.60;;;;;;;-2.09;98.65;101247.21;105857;1257;60458;-76
2023/02/06 02:50:28;;;;;;;10.30;8.50;;;;;;;-2.15;98.53;101251.41;105877;1259;60623;-77
2023/02/06 02:52:57;;;;;;;10.10;7.40;;;;;;;-2.18;98.56;101246.46;105910;1257;74973;-78
2023/02/06 02:55:27;;;;;;;12.50;8.30;;;;;;;-2.26;98.39;101241.25;105938;1257;67022;-76
2023/02/06 02:58:01;;;;;;;11.10;9.30;;;;;;;-2.29;98.81;101242.63;105861;1259;71775;-75
2023/02/06 03:00:33;;;;;;;10.90;8.00;;;;;;;-2.29;98.90;101245.54;105954;1254;61760;-76
2023/02/06 03:03:01;;;;;;;7.70;6.10;;;;;;;-2.28;98.97;101244.98;105951;1254;60358;-75
2023/02/06 03:05:30;;;;;;;13.20;9.10;;;;;;;-2.33;99.50;101248.38;105828;1262;73046;-77
2023/02/06 03:08:08;;;;;;;9.90;8.70;;;;;;;-2.33;99.56;101251.02;105631;1262;66523;-75
2023/02/06 03:10:56;;;;;;;11.60;9.30;;;;;;;-2.32;99.49;101250.91;105854;1259;71525;-82
2023/02/06 03:13:29;;;;;;;7.20;6.30;;;;;;;-2.26;99.36;101250.95;105831;1255;60449;-79
2023/02/06 03:15:57;;;;;;;10.20;8.30;;;;;;;-2.23;99.33;101251.02;106066;1255;61224;-77
2023/02/06 03:18:49;;;;;;;14.90;10.70;;;;;;;-2.18;99.21;101253.06;105983;1255;71632;-78
2023/02/06 03:21:18;;;;;;;11.20;9.20;;;;;;;-2.13;98.97;101253.38;105676;1260;69083;-80
2023/02/06 03:23:48;;;;;;;13.00;9.70;;;;;;;-2.12;99.10;101254.05;105813;1258;70761;-79
2023/02/06 03:26:18;;;;;;;14.80;9.90;;;;;;;-2.15;98.98;101251.77;105867;1258;60559;-78
2023/02/06 03:28:49;;;;;;;13.00;10.30;;;;;;;-2.19;98.96;101255.78;105879;1253;62386;-77
2023/02/06 03:31:20;;;;;;;12.20;9.60;;;;;;;-2.20;98.88;101261.65;105950;1259;72892;-76
2023/02/06 03:34:14;;;;;;;11.10;9.10;;;;;;;-2.13;99.29;101263.55;105985;1256;67259;-79
2023/02/06 03:36:43;;;;;;;15.50;11.00;;;;;;;-2.05;99.28;101261.97;106009;1255;71744;-76
2023/02/06 03:39:11;;;;;;;14.20;10.20;;;;;;;-2.02;99.20;101264.93;105887;1259;60473;-75
2023/02/06 03:41:39;;;;;;;14.20;11.60;;;;;;;-2.05;99.23;101267.98;105716;1259;60568;-75
2023/02/06 03:44:08;;;;;;;17.40;11.00;;;;;;;-2.08;99.08;101261.39;105823;1255;73003;-76
2023/02/06 03:46:39;;;;;;;19.30;11.30;;;;;;;-2.10;99.03;101268.73;105801;1256;66849;-76
2023/02/06 03:49:07;;;;;;;15.90;11.80;;;;;;;-2.06;99.21;101269.66;105751;1254;73153;-77
2023/02/06 03:51:40;;;;;;;16.70;11.60;;;;;;;-2.02;99.42;101271.92;105920;1254;61557;-80
2023/02/06 03:54:08;;;;;;;12.80;11.00;;;;;;;-1.98;99.40;101271.20;105930;1257;60400;-76
2023/02/06 03:56:40;;;;;;;16.30;12.00;;;;;;;-1.97;99.21;101271.12;105770;1259;72926;-77
2023/02/06 03:59:08;;;;;;;12.10;10.00;;;;;;;-1.95;99.43;101276.63;105804;1254;67877;-76
2023/02/06 04:01:42;;;;;;;14.70;10.40;;;;;;;-1.98;99.10;101275.61;105223;1255;1003310;-78
2023/02/06 04:04:13;;;;;;;14.00;9.40;;;;;;;-1.99;99.23;101273.10;105123;1254;1003805;-77
2023/02/06 04:06:41;;;;;;;13.70;9.80;;;;;;;-2.06;99.49;101274.34;105844;1254;60518;-78
2023/02/06 04:09:09;;;;;;;12.20;9.50;;;;;;;-2.13;99.72;101276.78;105600;1263;75049;-78
2023/02/06 04:11:38;;;;;;;12.90;9.10;;;;;;;-2.15;99.93;101277.23;106022;1255;67560;-77
2023/02/06 04:14:07;;;;;;;12.80;10.20;;;;;;;-2.12;99.94;101280.73;106038;1258;72967;-77
2023/02/06 04:16:35;;;;;;;11.60;9.50;;;;;;;-2.09;99.96;101281.16;105903;1265;60612;-77
2023/02/06 04:19:04;;;;;;;15.10;11.20;;;;;;;-2.05;99.92;101286.19;105895;1254;60514;-76
2023/02/06 04:21:33;;;;;;;16.20;11.50;;;;;;;-2.05;99.85;101286.60;105129;1260;1003451;-78
2023/02/06 04:24:02;;;;;;;17.20;12.30;;;;;;;-2.10;99.94;101289.45;105956;1255;68653;-78
2023/02/06 04:26:31;;;;;;;14.80;10.90;;;;;;;-2.10;99.89;101287.73;105947;1255;73813;-78
2023/02/06 04:28:59;;;;;;;16.90;12.70;;;;;;;-2.09;99.93;101289.94;105959;1255;61078;-76
2023/02/06 04:31:28;;;;;;;14.10;11.40;;;;;;;-2.05;99.98;101295.39;105978;1255;60486;-77
2023/02/06 04:33:56;;;;;;;13.30;9.80;;;;;;;-2.02;100.00;101295.28;105942;1258;72365;-78
2023/02/06 04:36:24;;;;;;;10.60;9.20;;;;;;;-1.99;99.97;101298.16;105826;1260;67549;-77
2023/02/06 04:38:52;;;;;;;14.40;10.50;;;;;;;-1.97;99.81;101302.65;105387;1253;646043;-77
2023/02/06 04:41:21;;;;;;;15.50;10.90;;;;;;;-1.99;99.84;101301.04;105883;1254;60834;-79
2023/02/06 04:43:49;;;;;;;14.10;9.90;;;;;;;-2.02;99.62;101303.74;105967;1259;60506;-77
2023/02/06 04:46:17;;;;;;;17.30;11.90;;;;;;;-2.05;99.71;101302.96;105847;1259;73399;-77
2023/02/06 04:48:45;;;;;;;13.70;10.30;;;;;;;-2.04;99.63;101304.11;105771;1254;67078;-78
2023/02/06 04:51:14;;;;;;;14.90;12.00;;;;;;;-2.04;99.80;101303.18;105859;1259;71580;-79
2023/02/06 04:53:42;;;;;;;15.50;11.10;;;;;;;-2.02;99.79;101302.48;105856;1261;60524;-77
2023/02/06 04:56:11;;;;;;;17.50;12.40;;;;;;;-2.07;99.35;101302.55;105990;1254;60657;-78
2023/02/06 04:58:39;;;;;;;14.40;10.60;;;;;;;-2.11;99.21;101301.88;105967;1256;73816;-77
2023/02/06 05:01:07;;;;;;;17.40;10.60;;;;;;;-2.14;99.28;101303.75;106005;1254;68212;-76
2023/02/06 05:03:36;;;;;;;18.00;12.40;;;;;;;-2.19;99.84;101305.38;105827;1258;73009;-74
2023/02/06 05:06:05;;;;;;;15.30;10.60;;;;;;;-2.16;99.68;101308.27;105920;1254;61430;-77
2023/02/06 05:08:33;;;;;;;23.00;14.00;;;;;;;-2.14;99.53;101308.05;105856;1254;60939;-76
2023/02/06 05:11:01;;;;;;;13.10;9.10;;;;;;;-2.15;99.37;101306.77;105851;1254;74978;-76
2023/02/06 05:13:32;;;;;;;19.40;13.60;;;;;;;-2.20;99.29;101306.30;105976;1255;68905;-77
2023/02/06 05:16:08;;;;;;;14.20;9.50;;;;;;;-2.22;99.20;101304.41;105731;1259;71466;-79
2023/02/06 05:18:36;;;;;;;16.30;10.60;;;;;;;-2.22;99.42;101306.31;105970;1253;60995;-76
2023/02/06 05:21:05;;;;;;;12.60;9.00;;;;;;;-2.21;99.37;101306.73;105847;1254;60493;-78
2023/02/06 05:23:33;;;;;;;11.50;9.50;;;;;;;-2.18;99.31;101310.36;105910;1254;73807;-75
2023/02/06 05:26:02;;;;;;;8.60;7.10;;;;;;;-2.19;99.01;101310.65;105781;1253;68312;-76
2023/02/06 05:28:32;;;;;;;11.20;9.80;;;;;;;-2.27;98.59;101314.42;105963;1255;72723;-78
2023/02/06 05:31:01;;;;;;;11.10;8.70;;;;;;;-2.29;98.82;101315.83;105927;1257;60492;-79
2023/02/06 05:33:30;;;;;;;9.40;7.90;;;;;;;-2.28;98.72;101312.25;105898;1254;60576;-77
2023/02/06 05:36:03;;;;;;;9.50;7.50;;;;;;;-2.26;98.50;101313.35;105826;1254;72963;-74
2023/02/06 05:38:31;;;;;;;11.70;9.00;;;;;;;-2.30;98.00;101318.52;105761;1256;65609;-75
2023/02/06 05:41:00;;;;;;;11.40;8.40;;;;;;;-2.30;98.21;101319.22;105940;1256;73804;-74
2023/02/06 05:43:28;;;;;;;12.40;9.00;;;;;;;-2.26;98.33;101316.31;105823;1254;60458;-76
2023/02/06 05:45:56;;;;;;;10.60;7.50;;;;;;;-2.22;98.37;101317.52;105801;1260;60461;-79
2023/02/06 05:48:27;;;;;;;16.60;11.60;;;;;;;-2.25;97.85;101313.92;105794;1254;72928;-72
2023/02/06 05:50:57;;;;;;;11.80;7.20;;;;;;;-2.25;98.22;101313.17;105933;1254;66931;-76
2023/02/06 05:53:25;;;;;;;17.20;10.10;;;;;;;-2.27;97.77;101317.63;106028;1254;73992;-76
2023/02/06 05:55:53;;;;;;;18.00;11.10;;;;;;;-2.31;97.65;101316.92;105856;1254;60480;-72
2023/02/06 05:58:22;;;;;;;10.40;6.20;;;;;;;-2.33;97.78;101319.00;105559;1254;60566;-74
2023/02/06 06:00:50;;;;;;;16.30;10.20;;;;;;;-2.32;98.22;101321.92;105840;1258;72183;-75
2023/02/06 06:03:18;;;;;;;23.10;11.50;;;;;;;-2.31;98.23;101323.94;105820;1254;68547;-72
2023/02/06 06:05:46;;;;;;;22.90;10.90;;;;;;;-2.28;97.94;101325.45;105851;1254;71600;-73
2023/02/06 06:08:15;;;;;;;18.10;10.10;;;;;;;-2.27;98.10;101323.61;105906;1254;60566;-72
2023/02/06 06:10:43;;;;;;;12.00;7.30;;;;;;;-2.24;98.43;101328.11;105929;1254;61891;-71
2023/02/06 06:13:11;;;;;;;17.30;10.40;;;;;;;-2.27;97.90;101326.73;105780;1254;73487;-71
2023/02/06 06:15:39;;;;;;;14.20;8.70;;;;;;;-2.27;97.99;101323.80;105847;1254;67219;-73
2023/02/06 06:18:08;;;;;;;13.10;10.40;;;;;;;-2.27;98.28;101320.11;105707;1254;73882;-74
2023/02/06 06:20:36;;;;;;;15.50;10.30;;;;;;;-2.27;98.34;101320.56;105776;1254;60540;-71
2023/02/06 06:23:05;;;;;;;15.70;10.60;;;;;;;-2.27;98.45;101317.47;105106;1255;1003076;-75
2023/02/06 06:25:34;;;;;;;15.50;9.50;;;;;;;-2.27;98.37;101320.44;105623;1254;74821;-73
2023/02/06 06:28:03;;;;;;;12.90;9.40;;;;;;;-2.26;98.45;101314.90;105841;1254;68507;-71
2023/02/06 06:30:32;;;;;;;13.50;9.70;;;;;;;-2.21;98.54;101315.55;105931;1259;73775;-70
2023/02/06 06:33:02;;;;;;;18.30;9.80;;;;;;;-2.23;98.07;101314.77;105769;1254;60436;-72
2023/02/06 06:35:31;;;;;;;15.80;9.20;;;;;;;-2.25;98.50;101321.14;105621;1259;60629;-73
2023/02/06 06:37:59;;;;;;;18.30;11.80;;;;;;;-2.27;98.50;101322.89;105515;1259;72784;-72
2023/02/06 06:40:27;;;;;;;14.40;9.40;;;;;;;-2.22;98.61;101321.77;105810;1254;68641;-70
2023/02/06 06:42:55;;;;;;;11.50;8.30;;;;;;;-2.17;98.16;101323.63;105895;1253;72785;-73
2023/02/06 06:45:24;;;;;;;10.60;7.50;;;;;;;-2.13;98.33;101326.09;105875;1257;60365;-74
2023/02/06 06:47:52;;;;;;;15.30;9.70;;;;;;;-2.12;97.91;101328.88;106083;1254;60591;-74
2023/02/06 06:50:20;;;;;;;13.30;9.70;;;;;;;-2.14;97.58;101329.73;105987;1254;74804;-72
2023/02/06 06:52:48;;;;;;;12.60;10.30;;;;;;;-2.12;97.85;101329.59;105854;1254;68004;-71
2023/02/06 06:55:18;;;;;;;9.70;7.70;;;;;;;-2.08;97.91;101330.42;106027;1258;72405;-74
2023/02/06 06:57:46;;;;;;;11.10;7.60;;;;;;;-2.02;97.61;101331.66;105872;1259;60861;-74
2023/02/06 07:00:15;;;;;;;10.10;8.10;;;;;;;-1.99;97.26;101331.38;106197;1254;61155;-73
2023/02/06 07:02:44;;;;;;;14.30;9.30;;;;;;;-1.96;96.96;101335.59;106123;1253;74115;-76
2023/02/06 07:05:12;;;;;;;14.70;10.10;;;;;;;-1.97;96.90;101341.49;105774;1254;66517;-73
2023/02/06 07:07:40;;;;;;;12.20;9.50;;;;;;;-2.00;96.82;101345.05;105905;1253;73603;-75
2023/02/06 07:10:10;;;;;;;15.70;9.50;;;;;;;-1.97;97.08;101348.84;105868;1255;60464;-72
2023/02/06 07:12:38;;;;;;;15.30;10.50;;;;;;;-1.93;96.63;101350.27;105901;1254;60462;-70
2023/02/06 07:15:07;;;;;;;10.90;7.60;;;;;;;-1.91;96.54;101349.02;105853;1260;72545;-73
2023/02/06 07:17:36;;;;;;;10.80;9.00;;;;;;;-1.90;96.34;101346.98;105829;1254;67059;-70
2023/02/06 07:20:05;;;;;;;13.00;9.80;;;;;;;-1.85;96.21;101349.55;105929;1257;72413;-72
2023/02/06 07:22:33;;;;;;;9.70;6.80;;;;;;;-1.80;95.94;101350.20;105793;1254;60527;-74
2023/02/06 07:25:01;;;;;;;10.00;7.90;;;;;;;-1.79;95.56;101352.74;105978;1260;60567;-76
2023/02/06 07:27:30;;;;;;;10.90;8.20;;;;;;;-1.77;95.26;101359.27;105845;1254;72638;-73
2023/02/06 07:29:58;;;;;;;11.40;8.10;;;;;;;-1.78;95.01;101363.92;105920;1253;67395;-71
2023/02/06 07:32:26;;;;;;;11.00;8.20;;;;;;;-1.78;94.49;101363.71;105867;1258;71483;-77
2023/02/06 07:34:55;;;;;;;12.70;9.60;;;;;;;-1.74;94.37;101359.02;105744;1253;60443;-73
2023/02/06 07:37:23;;;;;;;9.30;7.10;;;;;;;-1.69;94.36;101360.88;105824;1253;60555;-75
2023/02/06 07:39:51;;;;;;;11.40;8.80;;;;;;;-1.64;93.64;101370.30;105913;1259;73550;-76
2023/02/06 07:42:19;;;;;;;10.80;8.70;;;;;;;-1.61;93.05;101368.47;105943;1253;68937;-71
2023/02/06 07:44:52;;;;;;;9.50;8.50;;;;;;;-1.58;92.61;101365.76;105965;1254;72281;-73
2023/02/06 07:47:20;;;;;;;7.90;6.70;;;;;;;-1.56;92.44;101370.61;105894;1253;60629;-73
2023/02/06 07:49:52;;;;;;;11.70;8.70;;;;;;;-1.53;91.94;101369.37;105871;1253;61281;-72
2023/02/06 07:52:21;;;;;;;12.20;9.50;;;;;;;-1.55;91.67;101372.47;105810;1256;73533;-72
2023/02/06 07:54:49;;;;;;;13.70;10.00;;;;;;;-1.49;91.94;101368.65;104301;1260;2029251;-72
2023/02/06 07:57:17;;;;;;;17.20;9.90;;;;;;;-1.42;91.67;101368.07;105573;1258;72871;-72
2023/02/06 07:59:48;;;;;;;17.50;12.00;;;;;;;-1.41;91.03;101372.01;105593;1257;60525;-71
2023/02/06 08:02:16;;;;;;;16.30;10.50;;;;;;;-1.39;90.71;101372.15;105454;1257;60480;-73
2023/02/06 08:04:44;;;;;;;13.50;9.60;;;;;;;-1.42;89.91;101367.02;105508;1257;74037;-71
2023/02/06 08:07:15;;;;;;;11.00;8.50;;;;;;;-1.46;89.52;101367.84;105497;1257;68155;-73
2023/02/06 08:09:45;;;;;;;12.50;9.90;;;;;;;-1.47;89.23;101369.88;105791;1261;75328;-77
2023/02/06 08:12:14;;;;;;;9.90;7.20;;;;;;;-1.44;89.48;101370.86;105690;1257;60495;-72
2023/02/06 08:14:46;;;;;;;16.70;11.40;;;;;;;-1.44;89.31;101369.30;105878;1257;60402;-75
2023/02/06 08:17:14;;;;;;;14.20;9.70;;;;;;;-1.40;89.51;101374.59;105453;1264;74235;-74
2023/02/06 08:19:47;;;;;;;13.10;9.40;;;;;;;-1.30;89.83;101378.82;105699;1260;67033;-70
2023/02/06 08:22:15;;;;;;;18.00;8.90;;;;;;;-1.24;89.05;101380.58;105639;1257;71823;-72
2023/02/06 08:24:44;;;;;;;14.90;10.30;;;;;;;-1.22;88.41;101386.37;105708;1258;62466;-71
2023/02/06 08:27:12;;;;;;;16.80;11.10;;;;;;;-1.22;88.67;101386.17;105724;1257;60580;-71
2023/02/06 08:29:41;;;;;;;14.00;10.70;;;;;;;-1.19;88.14;101388.52;105488;1257;74781;-74
2023/02/06 08:32:10;;;;;;;10.00;8.30;;;;;;;-1.14;88.05;101389.16;105382;1257;66976;-74
2023/02/06 08:34:38;;;;;;;9.30;7.20;;;;;;;-1.08;87.25;101385.95;105486;1257;73652;-74
2023/02/06 08:37:07;;;;;;;10.10;8.10;;;;;;;-1.05;86.09;101384.38;105631;1257;60401;-76
2023/02/06 08:39:37;;;;;;;9.30;8.00;;;;;;;-1.03;85.84;101387.84;105514;1257;61018;-73
2023/02/06 08:42:06;;;;;;;9.60;8.00;;;;;;;-1.01;84.92;101392.77;105676;1260;74088;-72
2023/02/06 08:44:35;;;;;;;11.80;8.00;;;;;;;-1.00;84.70;101395.71;105444;1263;66113;-76
2023/02/06 08:47:03;;;;;;;10.20;7.80;;;;;;;-1.03;83.74;101395.73;105573;1258;74313;-73
2023/02/06 08:49:37;;;;;;;12.20;7.10;;;;;;;-1.03;83.28;101394.01;105492;1257;61224;-73
2023/02/06 08:52:08;;;;;;;10.30;7.50;;;;;;;-1.04;81.99;101389.21;105452;1258;60818;-74
2023/02/06 08:54:37;;;;;;;10.60;6.80;;;;;;;-1.01;81.75;101392.23;105669;1257;73049;-72
2023/02/06 08:57:08;;;;;;;10.00;7.60;;;;;;;-0.98;80.97;101391.46;105707;1264;68614;-71
2023/02/06 08:59:37;;;;;;;10.70;7.30;;;;;;;-0.97;80.49;101390.96;105699;1257;71733;-73
2023/02/06 09:02:05;;;;;;;9.20;7.40;;;;;;;-0.98;80.60;101390.23;105712;1258;60793;-74
2023/02/06 09:04:36;;;;;;;7.20;6.40;;;;;;;-0.98;79.94;101393.75;105719;1257;61399;-74
2023/02/06 09:07:05;;;;;;;11.10;7.20;;;;;;;-0.97;79.26;101391.33;105620;1261;74103;-75
2023/02/06 09:09:33;;;;;;;6.70;5.90;;;;;;;-0.93;78.56;101396.85;105541;1258;69327;-73
2023/02/06 09:12:02;;;;;;;6.80;6.10;;;;;;;-0.89;77.92;101393.52;104798;1261;1002494;-75
2023/02/06 09:14:31;;;;;;;6.30;5.70;;;;;;;-0.85;77.44;101392.06;105524;1257;60614;-75
2023/02/06 09:17:00;;;;;;;7.50;6.10;;;;;;;-0.83;77.12;101389.65;105723;1257;60464;-72
2023/02/06 09:19:28;;;;;;;8.20;5.90;;;;;;;-0.81;77.17;101385.02;105516;1264;75067;-72
2023/02/06 09:21:56;;;;;;;9.10;6.10;;;;;;;-0.78;76.94;101384.23;105498;1260;66524;-72
2023/02/06 09:24:28;;;;;;;6.30;5.50;;;;;;;-0.75;75.49;101381.55;105524;1260;73956;-72
2023/02/06 09:26:59;;;;;;;5.90;5.20;;;;;;;-0.76;74.45;101384.61;105540;1258;60823;-72
2023/02/06 09:29:30;;;;;;;8.80;5.20;;;;;;;-0.80;73.85;101381.93;105647;1257;60589;-75
2023/02/06 09:32:01;;;;;;;;;;;;;;;-0.78;74.17;101390.55;105482;1264;72387;-72
2023/02/06 09:34:29;;;;;;;5.50;5.00;;;;;;;-0.77;74.30;101398.46;105496;1257;67643;-72
2023/02/06 09:36:57;;;;;;;7.50;5.90;;;;;;;-0.77;74.48;101396.54;105596;1261;73620;-71
2023/02/06 09:39:27;;;;;;;7.50;6.20;;;;;;;-0.74;74.86;101392.48;105519;1261;60496;-74
2023/02/06 09:42:01;;;;;;;7.20;6.30;;;;;;;-0.70;74.35;101390.45;105338;1257;60380;-73
2023/02/06 09:44:33;;;;;;;8.80;5.70;;;;;;;-0.68;73.97;101390.20;105550;1257;75040;-72
2023/02/06 09:47:10;;;;;;;6.60;5.70;;;;;;;-0.69;73.76;101391.20;105645;1258;68835;-74
2023/02/06 09:49:45;;;;;;;7.30;6.30;;;;;;;-0.79;71.86;101387.16;105630;1261;73319;-72
2023/02/06 09:52:35;;;;;;;5.50;5.00;;;;;;;-0.87;71.51;101387.70;105462;1261;60487;-70
2023/02/06 09:55:39;;;;;;;5.60;4.90;;;;;;;-0.89;71.53;101375.87;105541;1260;60796;-70
2023/02/06 09:58:39;;;;;;;8.70;6.00;;;;;;;-0.87;71.64;101378.16;105415;1261;72817;-73
2023/02/06 10:01:27;;;;;;;6.30;5.70;;;;;;;-0.86;72.06;101387.09;105609;1257;67870;-74
2023/02/06 10:04:41;;;;;;;6.00;5.40;;;;;;;-0.88;72.03;101380.71;105519;1256;73426;-77
2023/02/06 10:07:39;;;;;;;7.20;4.90;;;;;;;-0.92;71.82;101382.15;105272;1263;62216;-72
2023/02/06 10:10:39;;;;;;;6.80;5.50;;;;;;;-0.91;70.59;101385.70;105610;1260;61317;-72
2023/02/06 10:13:09;;;;;;;6.20;5.20;;;;;;;-0.90;69.90;101368.02;105493;1258;74834;-70
2023/02/06 10:15:45;;;;;;;7.60;5.60;;;;;;;-0.86;70.42;101371.46;105638;1258;66467;-76
2023/02/06 10:18:36;;;;;;;7.40;5.30;;;;;;;-0.80;71.13;101366.11;105628;1257;72753;-73
2023/02/06 10:21:40;;;;;;;6.80;6.00;;;;;;;-0.72;70.96;101366.47;105622;1257;60493;-71
2023/02/06 10:24:43;;;;;;;;;;;;;;;-0.67;70.64;101368.81;105187;1260;60953;-74
2023/02/06 10:27:15;;;;;;;5.30;4.80;;;;;;;-0.67;69.84;101370.95;105283;1260;75087;-70
2023/02/06 10:29:44;;;;;;;7.70;5.90;;;;;;;-0.71;69.50;101372.74;105384;1258;66994;-72
2023/02/06 10:32:18;;;;;;;9.20;5.90;;;;;;;-0.81;68.26;101372.86;106356;1258;74298;-75
2023/02/06 10:34:58;;;;;;;5.80;4.30;;;;;;;-0.92;66.81;101362.39;106976;1264;61061;-74
2023/02/06 10:37:46;;;;;;;5.90;4.90;;;;;;;-0.95;67.02;101374.48;106661;1257;59666;-74
2023/02/06 10:40:27;;;;;;;7.10;5.10;;;;;;;-0.91;67.64;101364.27;105873;1257;72101;-69
2023/02/06 10:43:00;;;;;;;6.70;6.10;;;;;;;-0.86;67.41;101352.55;105802;1258;65438;-75
2023/02/06 10:45:45;;;;;;;7.40;5.10;;;;;;;-0.81;66.37;101356.68;105929;1257;71153;-71
2023/02/06 10:48:30;;;;;;;6.90;5.60;;;;;;;-0.81;64.50;101355.68;105998;1257;60422;-70
2023/02/06 10:50:58;;;;;;;6.60;5.90;;;;;;;-0.82;65.03;101354.84;105699;1257;60408;-70
2023/02/06 10:53:33;;;;;;;6.30;5.60;;;;;;;-0.80;65.28;101353.59;105634;1258;72983;-70
2023/02/06 10:56:10;;;;;;;8.60;6.00;;;;;;;-0.80;65.16;101362.05;105904;1257;68196;-70
2023/02/06 10:59:04;;;;;;;6.10;5.50;;;;;;;-0.80;65.03;101356.73;106321;1257;73022;-70
2023/02/06 11:01:37;;;;;;;10.40;6.70;;;;;;;-0.77;65.71;101355.28;105765;1257;60600;-69
2023/02/06 11:04:26;;;;;;;8.10;5.70;;;;;;;-0.75;66.06;101358.09;105323;1257;60353;-70
2023/02/06 11:06:57;;;;;;;7.10;5.10;;;;;;;-0.76;66.38;101361.20;105022;1258;71842;-74
2023/02/06 11:09:26;;;;;;;7.40;5.80;;;;;;;-0.79;67.06;101364.95;105022;1257;66866;-74
2023/02/06 11:11:57;;;;;;;11.20;6.00;;;;;;;-0.82;67.48;101361.38;105569;1259;72394;-71
2023/02/06 11:14:34;;;;;;;7.60;5.40;;;;;;;-0.86;67.49;101359.06;105757;1257;60432;-69
2023/02/06 11:17:02;;;;;;;10.30;6.30;;;;;;;-0.90;67.20;101368.22;105617;1257;60465;-68
2023/02/06 11:19:43;;;;;;;6.90;5.00;;;;;;;-0.95;67.22;101367.58;105763;1260;73521;-72
2023/02/06 11:22:14;;;;;;;9.90;5.70;;;;;;;-0.98;67.82;101368.02;105156;1258;68871;-72
2023/02/06 11:25:25;;;;;;;12.20;6.80;;;;;;;-0.97;68.39;101366.73;105395;1258;70948;-73
2023/02/06 11:27:55;;;;;;;8.90;7.00;;;;;;;-0.95;69.02;101367.45;105649;1258;60375;-69
2023/02/06 11:30:35;;;;;;;15.80;8.00;;;;;;;-0.95;68.84;101371.85;105818;1257;60472;-75
2023/02/06 11:33:06;;;;;;;9.60;6.30;;;;;;;-0.99;68.37;101373.61;107172;1257;71818;-72